SWA213 KBOS-KJFK
Flight info
| Callsign | SWA213 |
|---|---|
| Flight time | 0h 38m |
| Altitude | 22000 |
| Route | SSOXS7 SSOXS BUZRD SEY PARCH3 |
| Aircraft | B738/M-SDE2E3FGHIRWXY/LB1 |
Departure
| Time | 2026-05-04 19:46 |
|---|---|
| Airport | Boston Logan International Airport (KBOS) |
Arrival
| Time | 2026-05-04 20:25 |
|---|---|
| Airport | John F. Kennedy International Airport (KJFK) |
| Time | Latitude | Longitude | Altitude | Speed | Heading |
|---|---|---|---|---|---|
| 2026-05-04 19:28 | 42.36731 | -71.01481 | 21 ft | 0 kts | 333° |
| 2026-05-04 19:37 | 42.36717 | -71.01473 | 23 ft | 2 kts | 338° |
| 2026-05-04 19:37 | 42.36702 | -71.01466 | 23 ft | 2 kts | 354° |
| 2026-05-04 19:38 | 42.36686 | -71.01471 | 21 ft | 2 kts | 55° |
| 2026-05-04 19:38 | 42.36681 | -71.01486 | 21 ft | 1 kts | 77° |
| 2026-05-04 19:38 | 42.36681 | -71.01488 | 21 ft | 0 kts | 78° |
| 2026-05-04 19:41 | 42.36684 | -71.01461 | 21 ft | 10 kts | 79° |
| 2026-05-04 19:41 | 42.36707 | -71.01300 | 23 ft | 21 kts | 77° |
| 2026-05-04 19:41 | 42.36800 | -71.01280 | 23 ft | 3 kts | 332° |
| 2026-05-04 19:42 | 42.36819 | -71.01284 | 24 ft | 9 kts | 2° |
| 2026-05-04 19:42 | 42.36914 | -71.01190 | 23 ft | 22 kts | 40° |
| 2026-05-04 19:42 | 42.37043 | -71.01073 | 21 ft | 22 kts | 26° |
| 2026-05-04 19:42 | 42.37181 | -71.00985 | 20 ft | 22 kts | 25° |
| 2026-05-04 19:43 | 42.37235 | -71.00950 | 20 ft | 1 kts | 25° |
| 2026-05-04 19:43 | 42.37259 | -71.00933 | 20 ft | 0 kts | 29° |
| 2026-05-04 19:43 | 42.37260 | -71.00933 | 20 ft | 1 kts | 29° |
| 2026-05-04 19:43 | 42.37320 | -71.00898 | 19 ft | 18 kts | 21° |
| 2026-05-04 19:44 | 42.37448 | -71.00832 | 21 ft | 20 kts | 20° |
| 2026-05-04 19:44 | 42.37575 | -71.00771 | 22 ft | 19 kts | 17° |
| 2026-05-04 19:44 | 42.37678 | -71.00723 | 26 ft | 12 kts | 19° |
| 2026-05-04 19:44 | 42.37754 | -71.00688 | 27 ft | 11 kts | 19° |
| 2026-05-04 19:45 | 42.37824 | -71.00643 | 27 ft | 11 kts | 45° |
| 2026-05-04 19:45 | 42.37828 | -71.00543 | 28 ft | 11 kts | 107° |
| 2026-05-04 19:45 | 42.37768 | -71.00485 | 23 ft | 13 kts | 186° |
| 2026-05-04 19:45 | 42.37666 | -71.00531 | 25 ft | 35 kts | 199° |
| 2026-05-04 19:46 | 42.37135 | -71.00792 | 19 ft | 124 kts | 202° |
| 2026-05-04 19:46 | 42.36149 | -71.01221 | 362 ft | 169 kts | 198° |
| 2026-05-04 19:46 | 42.34896 | -71.01678 | 939 ft | 203 kts | 200° |
| 2026-05-04 19:46 | 42.33484 | -71.01944 | 1863 ft | 208 kts | 182° |
| 2026-05-04 19:47 | 42.32030 | -71.01286 | 2381 ft | 237 kts | 155° |
| 2026-05-04 19:47 | 42.30712 | -70.99741 | 2893 ft | 269 kts | 135° |
| 2026-05-04 19:47 | 42.29564 | -70.97555 | 3305 ft | 297 kts | 127° |
| 2026-05-04 19:47 | 42.28804 | -70.94979 | 4393 ft | 298 kts | 98° |
| 2026-05-04 19:48 | 42.28770 | -70.92209 | 5492 ft | 296 kts | 101° |
| 2026-05-04 19:48 | 42.27974 | -70.89694 | 6279 ft | 293 kts | 135° |
| 2026-05-04 19:48 | 42.26356 | -70.88156 | 7069 ft | 282 kts | 168° |
| 2026-05-04 19:48 | 42.24465 | -70.88032 | 7845 ft | 270 kts | 201° |
| 2026-05-04 19:49 | 42.22753 | -70.89047 | 8615 ft | 271 kts | 211° |
| 2026-05-04 19:49 | 42.21041 | -70.90146 | 9457 ft | 275 kts | 212° |
| 2026-05-04 19:49 | 42.19328 | -70.91307 | 10151 ft | 282 kts | 212° |
| 2026-05-04 19:49 | 42.17517 | -70.92546 | 10511 ft | 304 kts | 212° |
| 2026-05-04 19:50 | 42.15555 | -70.93886 | 10703 ft | 329 kts | 211° |
| 2026-05-04 19:50 | 42.13431 | -70.95318 | 10906 ft | 351 kts | 211° |
| 2026-05-04 19:50 | 42.11201 | -70.96800 | 11400 ft | 363 kts | 210° |
| 2026-05-04 19:50 | 42.09113 | -70.98173 | 12080 ft | 366 kts | 210° |
| 2026-05-04 19:51 | 42.08756 | -70.98407 | 12215 ft | 366 kts | 210° |
| 2026-05-04 19:51 | 42.06454 | -70.99910 | 12969 ft | 370 kts | 210° |
| 2026-05-04 19:51 | 42.04122 | -71.01431 | 13718 ft | 374 kts | 210° |
| 2026-05-04 19:51 | 42.01762 | -71.02969 | 14359 ft | 378 kts | 210° |
| 2026-05-04 19:52 | 41.99384 | -71.04517 | 15004 ft | 382 kts | 210° |
| 2026-05-04 19:52 | 41.96972 | -71.06087 | 15644 ft | 386 kts | 210° |
| 2026-05-04 19:52 | 41.94543 | -71.07666 | 16272 ft | 390 kts | 210° |
| 2026-05-04 19:52 | 41.92083 | -71.09264 | 16878 ft | 395 kts | 210° |
| 2026-05-04 19:53 | 41.89598 | -71.10875 | 17492 ft | 399 kts | 210° |
| 2026-05-04 19:53 | 41.87091 | -71.12501 | 18115 ft | 402 kts | 210° |
| 2026-05-04 19:53 | 41.84559 | -71.14144 | 18658 ft | 405 kts | 210° |
| 2026-05-04 19:53 | 41.82009 | -71.15795 | 19157 ft | 409 kts | 210° |
| 2026-05-04 19:54 | 41.79431 | -71.17464 | 19661 ft | 413 kts | 210° |
| 2026-05-04 19:54 | 41.76868 | -71.19121 | 20033 ft | 416 kts | 210° |
| 2026-05-04 19:54 | 41.74194 | -71.20850 | 20059 ft | 428 kts | 210° |
| 2026-05-04 19:54 | 41.72405 | -71.22008 | 20065 ft | 434 kts | 210° |
| 2026-05-04 19:55 | 41.68778 | -71.24347 | 20066 ft | 438 kts | 210° |
| 2026-05-04 19:55 | 41.66041 | -71.26106 | 20049 ft | 435 kts | 210° |
| 2026-05-04 19:55 | 41.63319 | -71.27852 | 20047 ft | 433 kts | 210° |
| 2026-05-04 19:55 | 41.60606 | -71.29594 | 20048 ft | 432 kts | 210° |
| 2026-05-04 19:56 | 41.57900 | -71.31331 | 20051 ft | 431 kts | 210° |
| 2026-05-04 19:56 | 41.55191 | -71.33068 | 20057 ft | 431 kts | 210° |
| 2026-05-04 19:56 | 41.53361 | -71.34243 | 20057 ft | 432 kts | 210° |
| 2026-05-04 19:56 | 41.50651 | -71.35979 | 20070 ft | 432 kts | 210° |
| 2026-05-04 19:57 | 41.47970 | -71.37697 | 20077 ft | 435 kts | 210° |
| 2026-05-04 19:57 | 41.45247 | -71.39439 | 20073 ft | 434 kts | 210° |
| 2026-05-04 19:57 | 41.42523 | -71.41179 | 20074 ft | 433 kts | 210° |
| 2026-05-04 19:57 | 41.39803 | -71.42914 | 20082 ft | 434 kts | 210° |
| 2026-05-04 19:58 | 41.37079 | -71.44652 | 20088 ft | 434 kts | 210° |
| 2026-05-04 19:58 | 41.34354 | -71.46388 | 20133 ft | 434 kts | 210° |
| 2026-05-04 19:58 | 41.31633 | -71.48121 | 20135 ft | 434 kts | 210° |
| 2026-05-04 19:58 | 41.28909 | -71.49853 | 20137 ft | 434 kts | 210° |
| 2026-05-04 19:59 | 41.26182 | -71.51586 | 20143 ft | 434 kts | 209° |
| 2026-05-04 19:59 | 41.23454 | -71.53316 | 20143 ft | 434 kts | 210° |
| 2026-05-04 19:59 | 41.20743 | -71.55069 | 20137 ft | 432 kts | 213° |
| 2026-05-04 19:59 | 41.18418 | -71.57484 | 20146 ft | 420 kts | 232° |
| 2026-05-04 20:00 | 41.16768 | -71.60640 | 20158 ft | 415 kts | 246° |
| 2026-05-04 20:00 | 41.15794 | -71.64206 | 20144 ft | 410 kts | 261° |
| 2026-05-04 20:00 | 41.15306 | -71.67918 | 20142 ft | 409 kts | 263° |
| 2026-05-04 20:00 | 41.14879 | -71.71649 | 20137 ft | 409 kts | 264° |
| 2026-05-04 20:01 | 41.14459 | -71.75382 | 20133 ft | 408 kts | 263° |
| 2026-05-04 20:01 | 41.14029 | -71.79099 | 20125 ft | 407 kts | 263° |
| 2026-05-04 20:01 | 41.13585 | -71.82813 | 20133 ft | 408 kts | 263° |
| 2026-05-04 20:01 | 41.13131 | -71.86527 | 20133 ft | 408 kts | 263° |
| 2026-05-04 20:02 | 41.12670 | -71.90248 | 20131 ft | 409 kts | 263° |
| 2026-05-04 20:02 | 41.12204 | -71.93968 | 20135 ft | 409 kts | 263° |
| 2026-05-04 20:02 | 41.11738 | -71.97686 | 20132 ft | 409 kts | 263° |
| 2026-05-04 20:02 | 41.11269 | -72.01410 | 20135 ft | 409 kts | 263° |
| 2026-05-04 20:03 | 41.10801 | -72.05127 | 20132 ft | 408 kts | 263° |
| 2026-05-04 20:03 | 41.10332 | -72.08840 | 20131 ft | 409 kts | 263° |
| 2026-05-04 20:03 | 41.09843 | -72.12555 | 20138 ft | 410 kts | 260° |
| 2026-05-04 20:03 | 41.09113 | -72.16204 | 20123 ft | 411 kts | 256° |
| 2026-05-04 20:04 | 41.08215 | -72.19803 | 20129 ft | 408 kts | 254° |
| 2026-05-04 20:04 | 41.07280 | -72.23329 | 20049 ft | 409 kts | 253° |
| 2026-05-04 20:04 | 41.06328 | -72.26919 | 19980 ft | 414 kts | 253° |
| 2026-05-04 20:04 | 41.05405 | -72.30453 | 19900 ft | 395 kts | 254° |
| 2026-05-04 20:05 | 41.04546 | -72.33798 | 19730 ft | 374 kts | 254° |
| 2026-05-04 20:05 | 41.03729 | -72.37023 | 19189 ft | 365 kts | 254° |
| 2026-05-04 20:05 | 41.02933 | -72.40206 | 18455 ft | 362 kts | 254° |
| 2026-05-04 20:05 | 41.02147 | -72.43363 | 17662 ft | 360 kts | 254° |
| 2026-05-04 20:06 | 41.01364 | -72.46501 | 16916 ft | 356 kts | 254° |
| 2026-05-04 20:06 | 41.00592 | -72.49592 | 16212 ft | 352 kts | 254° |
| 2026-05-04 20:06 | 40.99836 | -72.52610 | 16010 ft | 336 kts | 254° |
| 2026-05-04 20:06 | 40.99118 | -72.55463 | 15888 ft | 318 kts | 254° |
| 2026-05-04 20:07 | 40.98437 | -72.58173 | 15768 ft | 302 kts | 254° |
| 2026-05-04 20:07 | 40.97811 | -72.60661 | 15618 ft | 290 kts | 254° |
| 2026-05-04 20:07 | 40.97181 | -72.63168 | 15245 ft | 286 kts | 254° |
| 2026-05-04 20:07 | 40.96555 | -72.65660 | 14787 ft | 285 kts | 253° |
| 2026-05-04 20:08 | 40.95932 | -72.68136 | 14342 ft | 283 kts | 253° |
| 2026-05-04 20:08 | 40.95310 | -72.70604 | 13918 ft | 282 kts | 253° |
| 2026-05-04 20:08 | 40.94690 | -72.73057 | 13467 ft | 280 kts | 253° |
| 2026-05-04 20:08 | 40.94075 | -72.75488 | 13003 ft | 278 kts | 253° |
| 2026-05-04 20:09 | 40.93461 | -72.77905 | 12575 ft | 278 kts | 252° |
| 2026-05-04 20:09 | 40.92509 | -72.80124 | 12241 ft | 281 kts | 233° |
| 2026-05-04 20:09 | 40.91027 | -72.81833 | 12080 ft | 285 kts | 221° |
| 2026-05-04 20:09 | 40.89434 | -72.83361 | 12043 ft | 287 kts | 220° |
| 2026-05-04 20:10 | 40.87821 | -72.84883 | 12024 ft | 284 kts | 220° |
| 2026-05-04 20:10 | 40.86217 | -72.86397 | 12018 ft | 283 kts | 220° |
| 2026-05-04 20:10 | 40.84612 | -72.87921 | 12018 ft | 284 kts | 220° |
| 2026-05-04 20:10 | 40.83002 | -72.89452 | 12015 ft | 285 kts | 220° |
| 2026-05-04 20:11 | 40.81400 | -72.90981 | 12010 ft | 284 kts | 220° |
| 2026-05-04 20:11 | 40.79806 | -72.92504 | 11999 ft | 282 kts | 220° |
| 2026-05-04 20:11 | 40.78222 | -72.94018 | 11812 ft | 280 kts | 220° |
| 2026-05-04 20:11 | 40.76644 | -72.95528 | 11473 ft | 280 kts | 220° |
| 2026-05-04 20:12 | 40.75065 | -72.97037 | 11128 ft | 280 kts | 220° |
| 2026-05-04 20:12 | 40.73490 | -72.98541 | 10802 ft | 279 kts | 220° |
| 2026-05-04 20:12 | 40.71924 | -73.00036 | 10507 ft | 277 kts | 220° |
| 2026-05-04 20:12 | 40.70365 | -73.01526 | 10190 ft | 274 kts | 222° |
| 2026-05-04 20:13 | 40.69143 | -73.03366 | 9702 ft | 266 kts | 246° |
| 2026-05-04 20:13 | 40.68578 | -73.05644 | 9195 ft | 261 kts | 264° |
| 2026-05-04 20:13 | 40.68512 | -73.08021 | 8733 ft | 259 kts | 271° |
| 2026-05-04 20:13 | 40.68535 | -73.10381 | 8276 ft | 257 kts | 271° |
| 2026-05-04 20:14 | 40.68565 | -73.12723 | 7838 ft | 255 kts | 271° |
| 2026-05-04 20:14 | 40.68589 | -73.14946 | 7416 ft | 254 kts | 271° |
| 2026-05-04 20:14 | 40.68608 | -73.16948 | 7047 ft | 252 kts | 271° |
| 2026-05-04 20:14 | 40.68625 | -73.19246 | 6646 ft | 250 kts | 271° |
| 2026-05-04 20:15 | 40.68640 | -73.21530 | 6216 ft | 248 kts | 271° |
| 2026-05-04 20:15 | 40.68653 | -73.23802 | 5739 ft | 248 kts | 270° |
| 2026-05-04 20:15 | 40.68665 | -73.26069 | 5314 ft | 246 kts | 270° |
| 2026-05-04 20:15 | 40.68674 | -73.28319 | 4922 ft | 245 kts | 269° |
| 2026-05-04 20:16 | 40.68682 | -73.30561 | 4564 ft | 244 kts | 269° |
| 2026-05-04 20:16 | 40.68689 | -73.32803 | 4158 ft | 245 kts | 269° |
| 2026-05-04 20:16 | 40.68817 | -73.34982 | 3989 ft | 247 kts | 280° |
| 2026-05-04 20:16 | 40.69299 | -73.37137 | 3716 ft | 244 kts | 285° |
| 2026-05-04 20:17 | 40.69867 | -73.39259 | 3269 ft | 246 kts | 286° |
| 2026-05-04 20:17 | 40.70430 | -73.41329 | 3116 ft | 234 kts | 286° |
| 2026-05-04 20:17 | 40.70962 | -73.43305 | 3007 ft | 222 kts | 285° |
| 2026-05-04 20:17 | 40.71458 | -73.45167 | 2903 ft | 210 kts | 285° |
| 2026-05-04 20:18 | 40.71925 | -73.46947 | 2802 ft | 199 kts | 285° |
| 2026-05-04 20:18 | 40.72370 | -73.48655 | 2609 ft | 196 kts | 284° |
| 2026-05-04 20:18 | 40.72810 | -73.50358 | 2533 ft | 196 kts | 284° |
| 2026-05-04 20:18 | 40.73247 | -73.52053 | 2508 ft | 194 kts | 284° |
| 2026-05-04 20:19 | 40.73678 | -73.53732 | 2502 ft | 193 kts | 284° |
| 2026-05-04 20:19 | 40.74110 | -73.55414 | 2524 ft | 196 kts | 285° |
| 2026-05-04 20:19 | 40.74548 | -73.57134 | 2519 ft | 200 kts | 285° |
| 2026-05-04 20:19 | 40.74992 | -73.58843 | 2493 ft | 191 kts | 284° |
| 2026-05-04 20:20 | 40.75406 | -73.60452 | 2492 ft | 179 kts | 284° |
| 2026-05-04 20:20 | 40.75769 | -73.61932 | 2497 ft | 171 kts | 284° |
| 2026-05-04 20:20 | 40.76150 | -73.63371 | 2486 ft | 160 kts | 281° |
| 2026-05-04 20:20 | 40.76328 | -73.64785 | 2481 ft | 153 kts | 255° |
| 2026-05-04 20:21 | 40.75707 | -73.65866 | 2535 ft | 152 kts | 224° |
| 2026-05-04 20:21 | 40.74977 | -73.66910 | 2401 ft | 161 kts | 224° |
| 2026-05-04 20:21 | 40.73205 | -73.68631 | 2018 ft | 155 kts | 215° |
| 2026-05-04 20:22 | 40.72308 | -73.69360 | 1787 ft | 148 kts | 213° |
| 2026-05-04 20:22 | 40.71473 | -73.70023 | 1604 ft | 136 kts | 213° |
| 2026-05-04 20:22 | 40.70669 | -73.70662 | 1426 ft | 135 kts | 213° |
| 2026-05-04 20:22 | 40.69917 | -73.71246 | 1284 ft | 131 kts | 210° |
| 2026-05-04 20:23 | 40.69123 | -73.71865 | 1085 ft | 133 kts | 210° |
| 2026-05-04 20:23 | 40.68338 | -73.72485 | 909 ft | 127 kts | 211° |
| 2026-05-04 20:23 | 40.67586 | -73.73076 | 749 ft | 127 kts | 208° |
| 2026-05-04 20:23 | 40.66823 | -73.73675 | 576 ft | 128 kts | 207° |
| 2026-05-04 20:24 | 40.66050 | -73.74276 | 412 ft | 130 kts | 207° |
| 2026-05-04 20:24 | 40.65269 | -73.74894 | 260 ft | 131 kts | 206° |
| 2026-05-04 20:24 | 40.64483 | -73.75540 | 83 ft | 131 kts | 206° |
| 2026-05-04 20:24 | 40.63742 | -73.76122 | 23 ft | 115 kts | 209° |
| 2026-05-04 20:25 | 40.63205 | -73.76520 | 21 ft | 58 kts | 211° |
| 2026-05-04 20:25 | 40.62974 | -73.76795 | 20 ft | 38 kts | 238° |
| 2026-05-04 20:25 | 40.62930 | -73.76922 | 20 ft | 0 kts | 265° |
| 2026-05-04 20:27 | 40.62930 | -73.76923 | 20 ft | 1 kts | 265° |
| 2026-05-04 20:27 | 40.62948 | -73.77007 | 20 ft | 18 kts | 297° |
| 2026-05-04 20:27 | 40.63036 | -73.77204 | 21 ft | 28 kts | 301° |
| 2026-05-04 20:27 | 40.63140 | -73.77419 | 21 ft | 32 kts | 327° |
| 2026-05-04 20:28 | 40.63371 | -73.77315 | 20 ft | 39 kts | 31° |
| 2026-05-04 20:28 | 40.63602 | -73.77132 | 20 ft | 38 kts | 31° |
| 2026-05-04 20:28 | 40.63821 | -73.76960 | 20 ft | 36 kts | 26° |
| 2026-05-04 20:28 | 40.64053 | -73.76906 | 20 ft | 33 kts | 6° |
| 2026-05-04 20:29 | 40.64163 | -73.76890 | 20 ft | 0 kts | 6° |
| 2026-05-04 20:29 | 40.64175 | -73.76889 | 20 ft | 8 kts | 6° |
| 2026-05-04 20:30 | 40.64297 | -73.76889 | 20 ft | 27 kts | 351° |
| 2026-05-04 20:30 | 40.64385 | -73.76943 | 20 ft | 9 kts | 331° |
| 2026-05-04 20:30 | 40.64419 | -73.77022 | 19 ft | 12 kts | 285° |
| 2026-05-04 20:30 | 40.64441 | -73.77140 | 19 ft | 16 kts | 282° |
| 2026-05-04 20:31 | 40.64513 | -73.77237 | 20 ft | 14 kts | 354° |
| 2026-05-04 20:31 | 40.64523 | -73.77237 | 20 ft | 0 kts | 0° |